createdAt,value
2019-03-16T07:41:25.361Z,6.21
2019-03-16T07:46:25.333Z,6.23
2019-03-16T07:51:25.363Z,6.41
2019-03-16T07:56:25.322Z,6.35
2019-03-16T08:01:25.327Z,6.46
2019-03-16T08:06:25.365Z,6.54
2019-03-16T08:11:25.350Z,6.72
2019-03-16T08:16:25.378Z,6.62
2019-03-16T08:21:25.356Z,6.54
2019-03-16T08:26:25.358Z,6.70
2019-03-16T08:31:25.346Z,6.64
2019-03-16T08:36:25.352Z,6.76
2019-03-16T08:41:25.342Z,6.91
2019-03-16T08:46:25.331Z,6.88
2019-03-16T08:51:25.377Z,6.95
2019-03-16T08:56:25.331Z,6.89
2019-03-16T09:01:25.327Z,6.76
2019-03-16T09:06:25.375Z,6.84
2019-03-16T09:11:25.303Z,6.69
2019-03-16T09:16:25.325Z,6.83
2019-03-16T09:21:25.332Z,6.96
2019-03-16T09:26:25.350Z,6.62
2019-03-16T09:31:25.334Z,6.54
2019-03-16T09:36:25.337Z,6.63
2019-03-16T09:41:25.338Z,6.73
2019-03-16T09:46:25.311Z,6.67
2019-03-16T09:51:25.340Z,7.00
2019-03-16T09:56:25.322Z,6.88
2019-03-16T10:01:25.332Z,6.65
2019-03-16T10:06:25.332Z,6.94
2019-03-16T10:11:25.315Z,7.06
2019-03-16T10:16:25.339Z,7.15
2019-03-16T10:21:25.333Z,7.59
2019-03-16T10:26:25.317Z,7.59
2019-03-16T10:31:25.329Z,7.74
2019-03-16T10:42:36.351Z,0.00
2019-03-16T10:49:30.273Z,0.00
2019-03-16T10:54:30.297Z,0.00
2019-03-16T10:59:30.304Z,0.00
2019-03-16T11:04:30.329Z,0.00
2019-03-16T11:09:30.303Z,0.00
2019-03-16T11:14:30.308Z,0.00
2019-03-16T11:19:30.292Z,0.00
2019-03-16T11:24:30.291Z,0.00
2019-03-16T11:29:30.292Z,0.00
2019-03-16T11:34:30.277Z,0.00
2019-03-16T11:39:32.183Z,0.00
2019-03-16T11:44:30.288Z,0.00
2019-03-16T11:49:30.285Z,0.00
2019-03-16T11:54:30.299Z,0.00
2019-03-16T11:59:30.318Z,0.00
2019-03-16T12:04:30.302Z,0.00
2019-03-16T12:09:30.304Z,0.00
2019-03-16T12:14:30.322Z,0.00
2019-03-16T12:19:30.295Z,0.00
2019-03-16T12:24:30.291Z,0.00
2019-03-16T12:29:34.207Z,0.00
2019-03-16T12:34:30.277Z,0.00
2019-03-16T12:39:30.299Z,0.00
2019-03-16T12:44:30.310Z,0.00
2019-03-16T12:49:30.283Z,0.00
2019-03-16T12:54:30.282Z,0.00
2019-03-16T16:22:35.781Z,-39.44
2019-03-16T16:27:35.491Z,-39.44
2019-03-16T16:39:54.556Z,10.76
2019-03-16T16:44:54.354Z,10.58
2019-03-16T16:49:54.372Z,10.33
2019-03-16T16:54:54.319Z,10.22
2019-03-16T16:59:54.345Z,9.86
2019-03-16T17:04:54.353Z,9.70
2019-03-16T17:09:54.335Z,9.55
2019-03-16T17:14:54.326Z,9.66
2019-03-16T17:19:54.377Z,9.77
2019-03-16T17:24:54.343Z,9.88
2019-03-16T17:29:54.320Z,9.91
2019-03-16T17:34:54.390Z,9.94
2019-03-16T17:39:54.323Z,9.75
2019-03-16T17:44:54.326Z,9.61
2019-03-16T17:49:54.363Z,9.37
2019-03-16T17:54:54.329Z,9.43
2019-03-16T17:59:54.364Z,9.18
2019-03-16T18:04:54.381Z,9.05
2019-03-16T18:09:54.323Z,8.88
2019-03-16T18:14:54.321Z,8.72
2019-03-16T18:19:54.380Z,8.44
2019-03-16T18:24:54.339Z,7.89
2019-03-16T18:29:54.367Z,7.69
2019-03-16T18:34:54.376Z,7.53
2019-03-16T18:39:54.381Z,7.11
2019-03-16T18:44:54.366Z,6.84
2019-03-16T18:49:54.382Z,6.48
2019-03-16T18:54:54.318Z,6.23
2019-03-16T18:59:54.343Z,5.99
2019-03-16T19:04:54.371Z,5.95
2019-03-16T19:09:54.323Z,5.68
2019-03-16T19:14:54.353Z,5.64
2019-03-16T19:19:54.375Z,5.84
2019-03-16T19:24:54.318Z,5.36
2019-03-16T19:29:54.322Z,5.53
2019-03-16T19:34:54.354Z,5.29
2019-03-16T19:39:54.384Z,5.54
2019-03-16T19:44:54.349Z,5.44
2019-03-16T19:49:54.355Z,5.07
2019-03-16T19:54:54.325Z,5.19
2019-03-16T19:59:54.333Z,5.35
2019-03-16T20:04:54.364Z,5.45
2019-03-16T20:09:54.331Z,5.46
2019-03-16T20:14:54.354Z,5.52
2019-03-16T20:19:54.409Z,5.48
2019-03-16T20:24:54.323Z,5.54
2019-03-16T20:29:54.318Z,5.62
2019-03-16T20:34:54.355Z,5.55
2019-03-16T20:39:54.321Z,5.82
2019-03-16T20:44:54.324Z,5.50
2019-03-16T20:49:54.354Z,5.80
2019-03-16T20:54:54.305Z,5.97
2019-03-16T20:59:54.310Z,6.50
2019-03-16T21:04:54.353Z,7.01
2019-03-16T21:09:54.299Z,7.45
2019-03-16T21:14:54.340Z,7.64
2019-03-16T21:19:54.352Z,7.70
2019-03-16T21:24:54.297Z,7.11
2019-03-16T21:29:54.316Z,6.09
2019-03-16T21:34:54.331Z,6.38
2019-03-16T21:39:54.317Z,7.07
2019-03-16T21:44:54.308Z,7.29
2019-03-16T21:49:54.329Z,7.52
2019-03-16T21:54:54.315Z,7.43
2019-03-16T21:59:54.346Z,7.72
2019-03-16T22:04:54.351Z,7.91
2019-03-16T22:09:54.299Z,7.82
2019-03-16T22:14:54.314Z,7.65
2019-03-16T22:19:54.359Z,7.29
2019-03-16T22:24:54.309Z,7.09
2019-03-16T22:29:54.324Z,6.77
2019-03-16T22:34:54.334Z,6.48
2019-03-16T22:39:54.347Z,6.75
2019-03-16T22:44:54.364Z,6.69
2019-03-16T22:49:54.368Z,6.64
2019-03-16T22:54:54.356Z,6.71
2019-03-16T22:59:54.364Z,6.93
2019-03-16T23:04:54.369Z,6.98
2019-03-16T23:09:54.305Z,6.86
2019-03-16T23:14:54.375Z,6.77
2019-03-16T23:19:54.336Z,6.61
2019-03-16T23:24:54.298Z,6.62
2019-03-16T23:29:54.342Z,6.86
2019-03-16T23:34:54.349Z,6.88
2019-03-16T23:39:54.320Z,6.86
2019-03-16T23:44:54.332Z,6.78
2019-03-16T23:49:54.345Z,6.76
2019-03-16T23:54:54.275Z,6.75
2019-03-16T23:59:54.312Z,6.47
